Decoded Metar for LFMU (BEZIERS in FRANCE) (IATA:BZR) | Meteo·Mobile Aviation Weather
aviador You're here:

LFMU Decoded Metar

BEZIERS in FRANCE
Report Time2019-11-16 02:30:00
UTC Time2019-11-16 02:39:36
Flight Rules vfr VFR
Wind290° at 10 kt
W.Decomp.*RWY 27: 9.5 kt HW 3.3 kt RCW
Visibility9999 m
Phenomena:N/A
Clouds:N/A
Expected CloudBase > 400 ft AGL from Temp-Dew spread
CeilingNone
Temp04°C (ISA -11)
Dew Point03°C (93% RH)
AAT-1.1°C
QNH1007 hPa
Density Alt-955 ft
Elevation56 ft
Report Wrong Elevation
Raw Report
METAR LFMU 160230Z AUTO 29010KT CAVOK 04/03 Q1007=

Extra information for LFMU:More info

Metar Taf Metar & Taf Last 4 Metars F.Rules Stats Wind Profile Meteogram Temp Stats Airport Information Weather charts Add Link Nearby VenuesMetar ALERT Operation Metar Decoded Social comments